sensor_id;sensor_type;location;lat;lon;timestamp;P1;durP1;ratioP1;P2;durP2;ratioP2
13079;SDS011;6606;49.154;9.280;2023-04-15T00:00:50;5.47;;;3.53;;
13079;SDS011;6606;49.154;9.280;2023-04-15T00:03:32;7.10;;;3.40;;
13079;SDS011;6606;49.154;9.280;2023-04-15T00:06:14;5.50;;;4.00;;
13079;SDS011;6606;49.154;9.280;2023-04-15T00:08:56;6.23;;;3.83;;
13079;SDS011;6606;49.154;9.280;2023-04-15T00:11:39;6.77;;;3.90;;
13079;SDS011;6606;49.154;9.280;2023-04-15T00:14:21;5.03;;;3.63;;
13079;SDS011;6606;49.154;9.280;2023-04-15T00:17:03;7.27;;;3.77;;
13079;SDS011;6606;49.154;9.280;2023-04-15T00:19:45;5.57;;;4.10;;
13079;SDS011;6606;49.154;9.280;2023-04-15T00:22:27;8.30;;;3.90;;
13079;SDS011;6606;49.154;9.280;2023-04-15T00:25:09;8.97;;;3.93;;
13079;SDS011;6606;49.154;9.280;2023-04-15T00:27:55;7.70;;;4.50;;
13079;SDS011;6606;49.154;9.280;2023-04-15T00:30:37;7.20;;;4.30;;
13079;SDS011;6606;49.154;9.280;2023-04-15T00:33:18;7.23;;;4.33;;
13079;SDS011;6606;49.154;9.280;2023-04-15T00:36:00;5.83;;;3.90;;
13079;SDS011;6606;49.154;9.280;2023-04-15T00:38:42;6.67;;;4.07;;
13079;SDS011;6606;49.154;9.280;2023-04-15T00:41:24;8.33;;;3.90;;
13079;SDS011;6606;49.154;9.280;2023-04-15T00:44:07;7.27;;;3.73;;
13079;SDS011;6606;49.154;9.280;2023-04-15T00:46:49;6.43;;;4.00;;
13079;SDS011;6606;49.154;9.280;2023-04-15T00:49:32;7.33;;;4.37;;
13079;SDS011;6606;49.154;9.280;2023-04-15T00:52:15;7.07;;;4.40;;
13079;SDS011;6606;49.154;9.280;2023-04-15T00:54:57;6.87;;;4.70;;
13079;SDS011;6606;49.154;9.280;2023-04-15T00:57:39;5.63;;;3.80;;
13079;SDS011;6606;49.154;9.280;2023-04-15T01:00:22;9.90;;;4.80;;
13079;SDS011;6606;49.154;9.280;2023-04-15T01:03:04;7.77;;;4.00;;
13079;SDS011;6606;49.154;9.280;2023-04-15T01:05:46;6.20;;;4.67;;
13079;SDS011;6606;49.154;9.280;2023-04-15T01:08:28;6.53;;;4.23;;
13079;SDS011;6606;49.154;9.280;2023-04-15T01:11:11;7.13;;;4.23;;
13079;SDS011;6606;49.154;9.280;2023-04-15T01:13:54;6.63;;;4.10;;
13079;SDS011;6606;49.154;9.280;2023-04-15T01:16:37;5.60;;;4.20;;
13079;SDS011;6606;49.154;9.280;2023-04-15T01:19:20;7.77;;;3.83;;
13079;SDS011;6606;49.154;9.280;2023-04-15T01:22:02;5.87;;;3.50;;
13079;SDS011;6606;49.154;9.280;2023-04-15T01:24:44;5.77;;;3.87;;
13079;SDS011;6606;49.154;9.280;2023-04-15T01:27:36;5.90;;;3.60;;
13079;SDS011;6606;49.154;9.280;2023-04-15T01:30:20;7.97;;;3.77;;
13079;SDS011;6606;49.154;9.280;2023-04-15T01:33:02;6.50;;;3.90;;
13079;SDS011;6606;49.154;9.280;2023-04-15T01:35:43;5.70;;;4.23;;
13079;SDS011;6606;49.154;9.280;2023-04-15T01:38:26;7.20;;;4.50;;
13079;SDS011;6606;49.154;9.280;2023-04-15T01:41:08;7.87;;;5.50;;
13079;SDS011;6606;49.154;9.280;2023-04-15T01:43:51;7.20;;;4.93;;
13079;SDS011;6606;49.154;9.280;2023-04-15T01:46:33;7.47;;;5.30;;
13079;SDS011;6606;49.154;9.280;2023-04-15T01:49:15;9.93;;;5.50;;
13079;SDS011;6606;49.154;9.280;2023-04-15T01:51:57;9.07;;;5.70;;
13079;SDS011;6606;49.154;9.280;2023-04-15T01:54:38;6.67;;;4.97;;
13079;SDS011;6606;49.154;9.280;2023-04-15T01:57:20;7.43;;;5.37;;
13079;SDS011;6606;49.154;9.280;2023-04-15T02:00:04;11.47;;;5.53;;
13079;SDS011;6606;49.154;9.280;2023-04-15T02:02:53;10.47;;;5.50;;
13079;SDS011;6606;49.154;9.280;2023-04-15T02:05:38;8.13;;;5.10;;
13079;SDS011;6606;49.154;9.280;2023-04-15T02:08:19;7.47;;;5.30;;
13079;SDS011;6606;49.154;9.280;2023-04-15T02:11:01;7.70;;;4.73;;
13079;SDS011;6606;49.154;9.280;2023-04-15T02:13:43;8.10;;;4.83;;
13079;SDS011;6606;49.154;9.280;2023-04-15T02:16:26;7.37;;;4.83;;
13079;SDS011;6606;49.154;9.280;2023-04-15T02:19:08;8.20;;;4.50;;
13079;SDS011;6606;49.154;9.280;2023-04-15T02:21:51;6.40;;;4.20;;
13079;SDS011;6606;49.154;9.280;2023-04-15T02:24:33;9.40;;;4.70;;
13079;SDS011;6606;49.154;9.280;2023-04-15T02:27:17;6.13;;;4.47;;
13079;SDS011;6606;49.154;9.280;2023-04-15T02:29:58;6.43;;;4.10;;
13079;SDS011;6606;49.154;9.280;2023-04-15T02:32:42;6.70;;;4.17;;
13079;SDS011;6606;49.154;9.280;2023-04-15T02:35:24;9.30;;;4.60;;
13079;SDS011;6606;49.154;9.280;2023-04-15T02:38:06;5.90;;;4.13;;
13079;SDS011;6606;49.154;9.280;2023-04-15T02:40:48;6.20;;;3.80;;
13079;SDS011;6606;49.154;9.280;2023-04-15T02:43:30;7.50;;;4.40;;
13079;SDS011;6606;49.154;9.280;2023-04-15T02:46:11;7.90;;;4.10;;
13079;SDS011;6606;49.154;9.280;2023-04-15T02:48:55;4.97;;;3.80;;
13079;SDS011;6606;49.154;9.280;2023-04-15T02:51:38;6.03;;;3.80;;
13079;SDS011;6606;49.154;9.280;2023-04-15T02:54:20;7.63;;;4.10;;
13079;SDS011;6606;49.154;9.280;2023-04-15T02:57:03;5.83;;;4.07;;
13079;SDS011;6606;49.154;9.280;2023-04-15T02:59:46;6.30;;;3.60;;
13079;SDS011;6606;49.154;9.280;2023-04-15T03:02:28;7.03;;;3.73;;
13079;SDS011;6606;49.154;9.280;2023-04-15T03:05:15;7.00;;;3.73;;
13079;SDS011;6606;49.154;9.280;2023-04-15T03:08:03;6.67;;;3.63;;
13079;SDS011;6606;49.154;9.280;2023-04-15T03:10:45;5.67;;;4.03;;
13079;SDS011;6606;49.154;9.280;2023-04-15T03:13:27;5.43;;;3.50;;
13079;SDS011;6606;49.154;9.280;2023-04-15T03:16:11;6.70;;;3.90;;
13079;SDS011;6606;49.154;9.280;2023-04-15T03:18:53;7.37;;;4.10;;
13079;SDS011;6606;49.154;9.280;2023-04-15T03:21:37;6.30;;;4.20;;
13079;SDS011;6606;49.154;9.280;2023-04-15T03:24:19;6.93;;;4.10;;
13079;SDS011;6606;49.154;9.280;2023-04-15T03:27:01;8.93;;;4.37;;
13079;SDS011;6606;49.154;9.280;2023-04-15T03:29:43;6.13;;;3.90;;
13079;SDS011;6606;49.154;9.280;2023-04-15T03:32:25;6.47;;;4.40;;
13079;SDS011;6606;49.154;9.280;2023-04-15T03:35:07;7.93;;;4.27;;
13079;SDS011;6606;49.154;9.280;2023-04-15T03:37:51;6.90;;;4.10;;
13079;SDS011;6606;49.154;9.280;2023-04-15T03:40:32;6.40;;;3.70;;
13079;SDS011;6606;49.154;9.280;2023-04-15T03:43:14;6.60;;;3.83;;
13079;SDS011;6606;49.154;9.280;2023-04-15T03:45:56;5.90;;;3.80;;
13079;SDS011;6606;49.154;9.280;2023-04-15T03:48:38;5.33;;;4.10;;
13079;SDS011;6606;49.154;9.280;2023-04-15T03:51:20;6.67;;;3.73;;
13079;SDS011;6606;49.154;9.280;2023-04-15T03:54:03;6.10;;;3.90;;
13079;SDS011;6606;49.154;9.280;2023-04-15T03:56:45;6.43;;;3.40;;
13079;SDS011;6606;49.154;9.280;2023-04-15T03:59:26;5.37;;;3.40;;
13079;SDS011;6606;49.154;9.280;2023-04-15T04:02:08;5.67;;;3.70;;
13079;SDS011;6606;49.154;9.280;2023-04-15T04:04:50;6.33;;;3.67;;
13079;SDS011;6606;49.154;9.280;2023-04-15T04:07:31;8.30;;;4.03;;
13079;SDS011;6606;49.154;9.280;2023-04-15T04:10:15;8.20;;;4.03;;
13079;SDS011;6606;49.154;9.280;2023-04-15T04:12:58;9.33;;;4.40;;
13079;SDS011;6606;49.154;9.280;2023-04-15T04:15:39;8.93;;;3.57;;
13079;SDS011;6606;49.154;9.280;2023-04-15T04:18:21;4.77;;;3.33;;
13079;SDS011;6606;49.154;9.280;2023-04-15T04:21:03;6.77;;;3.93;;
13079;SDS011;6606;49.154;9.280;2023-04-15T04:23:45;4.77;;;3.50;;
13079;SDS011;6606;49.154;9.280;2023-04-15T04:26:28;7.97;;;3.50;;
13079;SDS011;6606;49.154;9.280;2023-04-15T04:29:10;6.10;;;3.87;;
13079;SDS011;6606;49.154;9.280;2023-04-15T04:31:52;5.40;;;4.60;;
13079;SDS011;6606;49.154;9.280;2023-04-15T04:34:33;5.60;;;4.40;;
13079;SDS011;6606;49.154;9.280;2023-04-15T04:37:15;5.43;;;3.93;;
13079;SDS011;6606;49.154;9.280;2023-04-15T04:39:57;8.13;;;4.23;;
13079;SDS011;6606;49.154;9.280;2023-04-15T04:42:40;8.17;;;4.27;;
13079;SDS011;6606;49.154;9.280;2023-04-15T04:45:22;6.77;;;4.10;;
13079;SDS011;6606;49.154;9.280;2023-04-15T04:48:04;6.03;;;4.80;;
13079;SDS011;6606;49.154;9.280;2023-04-15T04:50:47;6.13;;;4.50;;
13079;SDS011;6606;49.154;9.280;2023-04-15T04:53:29;6.03;;;4.57;;
13079;SDS011;6606;49.154;9.280;2023-04-15T04:56:11;7.27;;;4.63;;
13079;SDS011;6606;49.154;9.280;2023-04-15T04:58:54;7.63;;;4.90;;
13079;SDS011;6606;49.154;9.280;2023-04-15T05:01:36;7.63;;;4.73;;
13079;SDS011;6606;49.154;9.280;2023-04-15T05:04:18;6.93;;;4.60;;
13079;SDS011;6606;49.154;9.280;2023-04-15T05:06:59;5.83;;;4.80;;
13079;SDS011;6606;49.154;9.280;2023-04-15T05:09:41;7.13;;;4.10;;
13079;SDS011;6606;49.154;9.280;2023-04-15T05:12:23;8.23;;;5.23;;
13079;SDS011;6606;49.154;9.280;2023-04-15T05:15:07;6.73;;;4.67;;
13079;SDS011;6606;49.154;9.280;2023-04-15T05:17:50;8.30;;;5.60;;
13079;SDS011;6606;49.154;9.280;2023-04-15T05:20:34;9.00;;;4.83;;
13079;SDS011;6606;49.154;9.280;2023-04-15T05:23:23;6.87;;;5.23;;
13079;SDS011;6606;49.154;9.280;2023-04-15T05:26:05;10.00;;;5.47;;
13079;SDS011;6606;49.154;9.280;2023-04-15T05:28:47;8.30;;;4.80;;
13079;SDS011;6606;49.154;9.280;2023-04-15T05:31:30;6.63;;;4.87;;
13079;SDS011;6606;49.154;9.280;2023-04-15T05:34:12;12.70;;;5.20;;
13079;SDS011;6606;49.154;9.280;2023-04-15T05:36:55;8.17;;;5.97;;
13079;SDS011;6606;49.154;9.280;2023-04-15T05:39:36;9.90;;;6.60;;
13079;SDS011;6606;49.154;9.280;2023-04-15T05:42:18;9.50;;;5.67;;
13079;SDS011;6606;49.154;9.280;2023-04-15T05:45:00;8.43;;;5.73;;
13079;SDS011;6606;49.154;9.280;2023-04-15T05:47:46;7.23;;;5.17;;
13079;SDS011;6606;49.154;9.280;2023-04-15T05:54:15;8.20;;;5.13;;
13079;SDS011;6606;49.154;9.280;2023-04-15T05:56:57;7.87;;;5.40;;
13079;SDS011;6606;49.154;9.280;2023-04-15T05:59:40;9.80;;;5.53;;
13079;SDS011;6606;49.154;9.280;2023-04-15T06:02:21;8.00;;;5.00;;
13079;SDS011;6606;49.154;9.280;2023-04-15T06:05:05;6.73;;;5.33;;
13079;SDS011;6606;49.154;9.280;2023-04-15T06:07:48;8.27;;;5.80;;
13079;SDS011;6606;49.154;9.280;2023-04-15T06:10:30;9.33;;;6.33;;
13079;SDS011;6606;49.154;9.280;2023-04-15T06:13:15;7.17;;;5.53;;
13079;SDS011;6606;49.154;9.280;2023-04-15T06:15:57;6.53;;;5.13;;
13079;SDS011;6606;49.154;9.280;2023-04-15T06:18:39;7.73;;;4.70;;
13079;SDS011;6606;49.154;9.280;2023-04-15T06:21:24;6.23;;;5.13;;
13079;SDS011;6606;49.154;9.280;2023-04-15T06:24:10;6.53;;;5.07;;
13079;SDS011;6606;49.154;9.280;2023-04-15T06:26:52;10.33;;;5.87;;
13079;SDS011;6606;49.154;9.280;2023-04-15T06:29:34;7.70;;;5.10;;
13079;SDS011;6606;49.154;9.280;2023-04-15T06:32:15;7.97;;;5.60;;
13079;SDS011;6606;49.154;9.280;2023-04-15T06:34:57;8.93;;;6.57;;
13079;SDS011;6606;49.154;9.280;2023-04-15T06:41:03;7.93;;;5.67;;
13079;SDS011;6606;49.154;9.280;2023-04-15T06:43:48;6.43;;;5.17;;
13079;SDS011;6606;49.154;9.280;2023-04-15T06:46:30;7.73;;;5.40;;
13079;SDS011;6606;49.154;9.280;2023-04-15T06:49:12;7.23;;;5.37;;
13079;SDS011;6606;49.154;9.280;2023-04-15T06:51:54;7.53;;;5.53;;
13079;SDS011;6606;49.154;9.280;2023-04-15T06:54:37;8.57;;;5.90;;
13079;SDS011;6606;49.154;9.280;2023-04-15T06:57:18;9.87;;;6.00;;
13079;SDS011;6606;49.154;9.280;2023-04-15T07:00:00;7.20;;;6.23;;
13079;SDS011;6606;49.154;9.280;2023-04-15T07:02:44;10.53;;;6.10;;
13079;SDS011;6606;49.154;9.280;2023-04-15T07:05:26;7.67;;;5.80;;
13079;SDS011;6606;49.154;9.280;2023-04-15T07:08:08;7.97;;;5.77;;
13079;SDS011;6606;49.154;9.280;2023-04-15T07:10:51;9.20;;;5.87;;
13079;SDS011;6606;49.154;9.280;2023-04-15T07:13:33;9.63;;;5.93;;
13079;SDS011;6606;49.154;9.280;2023-04-15T07:16:15;9.23;;;6.23;;
13079;SDS011;6606;49.154;9.280;2023-04-15T07:18:58;9.00;;;6.30;;
13079;SDS011;6606;49.154;9.280;2023-04-15T07:21:42;8.43;;;6.83;;
13079;SDS011;6606;49.154;9.280;2023-04-15T07:24:24;9.47;;;6.27;;
13079;SDS011;6606;49.154;9.280;2023-04-15T07:27:07;8.90;;;6.40;;
13079;SDS011;6606;49.154;9.280;2023-04-15T07:29:49;8.50;;;6.23;;
13079;SDS011;6606;49.154;9.280;2023-04-15T07:32:31;8.47;;;5.97;;
13079;SDS011;6606;49.154;9.280;2023-04-15T07:35:13;10.30;;;6.33;;
13079;SDS011;6606;49.154;9.280;2023-04-15T07:37:54;7.57;;;5.27;;
13079;SDS011;6606;49.154;9.280;2023-04-15T07:40:36;7.67;;;6.30;;
13079;SDS011;6606;49.154;9.280;2023-04-15T07:43:20;8.40;;;4.87;;
13079;SDS011;6606;49.154;9.280;2023-04-15T07:46:04;8.77;;;5.80;;
13079;SDS011;6606;49.154;9.280;2023-04-15T07:48:46;8.30;;;5.32;;
13079;SDS011;6606;49.154;9.280;2023-04-15T07:51:28;8.63;;;4.78;;
13079;SDS011;6606;49.154;9.280;2023-04-15T07:54:09;7.80;;;4.97;;
13079;SDS011;6606;49.154;9.280;2023-04-15T07:56:51;8.98;;;4.45;;
13079;SDS011;6606;49.154;9.280;2023-04-15T07:59:35;6.68;;;4.82;;
13079;SDS011;6606;49.154;9.280;2023-04-15T08:02:16;7.97;;;5.05;;
13079;SDS011;6606;49.154;9.280;2023-04-15T08:04:58;6.88;;;4.88;;
13079;SDS011;6606;49.154;9.280;2023-04-15T08:12:10;7.05;;;5.30;;
13079;SDS011;6606;49.154;9.280;2023-04-15T08:15:00;8.20;;;5.22;;
13079;SDS011;6606;49.154;9.280;2023-04-15T08:17:42;7.88;;;4.40;;
13079;SDS011;6606;49.154;9.280;2023-04-15T08:20:28;7.43;;;5.15;;
13079;SDS011;6606;49.154;9.280;2023-04-15T08:23:10;9.10;;;5.57;;
13079;SDS011;6606;49.154;9.280;2023-04-15T08:26:15;8.50;;;5.63;;
13079;SDS011;6606;49.154;9.280;2023-04-15T08:28:57;10.63;;;6.78;;
13079;SDS011;6606;49.154;9.280;2023-04-15T08:31:47;13.45;;;9.13;;
13079;SDS011;6606;49.154;9.280;2023-04-15T08:34:42;10.37;;;7.23;;
13079;SDS011;6606;49.154;9.280;2023-04-15T08:37:24;10.63;;;6.80;;
13079;SDS011;6606;49.154;9.280;2023-04-15T08:40:06;12.83;;;7.13;;
13079;SDS011;6606;49.154;9.280;2023-04-15T08:42:49;10.10;;;6.80;;
13079;SDS011;6606;49.154;9.280;2023-04-15T08:45:35;10.07;;;6.87;;
13079;SDS011;6606;49.154;9.280;2023-04-15T08:48:20;12.13;;;7.23;;
13079;SDS011;6606;49.154;9.280;2023-04-15T08:51:03;7.83;;;6.00;;
13079;SDS011;6606;49.154;9.280;2023-04-15T08:53:48;8.50;;;6.47;;
13079;SDS011;6606;49.154;9.280;2023-04-15T08:56:31;11.73;;;7.27;;
13079;SDS011;6606;49.154;9.280;2023-04-15T08:59:13;11.50;;;7.23;;
13079;SDS011;6606;49.154;9.280;2023-04-15T09:01:55;9.83;;;6.77;;
13079;SDS011;6606;49.154;9.280;2023-04-15T09:04:39;9.23;;;5.50;;
13079;SDS011;6606;49.154;9.280;2023-04-15T09:07:21;10.37;;;6.03;;
13079;SDS011;6606;49.154;9.280;2023-04-15T09:10:03;9.90;;;5.27;;
13079;SDS011;6606;49.154;9.280;2023-04-15T09:12:45;8.87;;;5.30;;
13079;SDS011;6606;49.154;9.280;2023-04-15T09:15:27;10.83;;;5.50;;
13079;SDS011;6606;49.154;9.280;2023-04-15T09:18:10;9.30;;;5.20;;
13079;SDS011;6606;49.154;9.280;2023-04-15T09:20:54;5.50;;;4.70;;
13079;SDS011;6606;49.154;9.280;2023-04-15T09:23:37;12.87;;;5.87;;
13079;SDS011;6606;49.154;9.280;2023-04-15T09:26:36;10.80;;;5.30;;
13079;SDS011;6606;49.154;9.280;2023-04-15T09:29:19;8.97;;;4.73;;
13079;SDS011;6606;49.154;9.280;2023-04-15T09:32:14;8.03;;;5.03;;
13079;SDS011;6606;49.154;9.280;2023-04-15T09:34:56;8.73;;;5.03;;
13079;SDS011;6606;49.154;9.280;2023-04-15T09:37:39;9.20;;;5.43;;
13079;SDS011;6606;49.154;9.280;2023-04-15T09:40:31;6.03;;;4.50;;
13079;SDS011;6606;49.154;9.280;2023-04-15T09:43:14;6.85;;;4.50;;
13079;SDS011;6606;49.154;9.280;2023-04-15T09:45:57;6.68;;;4.82;;
13079;SDS011;6606;49.154;9.280;2023-04-15T09:48:39;8.18;;;4.53;;
13079;SDS011;6606;49.154;9.280;2023-04-15T09:51:31;8.07;;;4.80;;
13079;SDS011;6606;49.154;9.280;2023-04-15T09:54:19;8.40;;;4.70;;
13079;SDS011;6606;49.154;9.280;2023-04-15T09:57:05;7.35;;;4.55;;
13079;SDS011;6606;49.154;9.280;2023-04-15T09:59:47;7.07;;;4.18;;
13079;SDS011;6606;49.154;9.280;2023-04-15T10:02:31;6.13;;;4.13;;
13079;SDS011;6606;49.154;9.280;2023-04-15T10:05:14;5.82;;;3.75;;
13079;SDS011;6606;49.154;9.280;2023-04-15T10:07:57;4.68;;;3.17;;
13079;SDS011;6606;49.154;9.280;2023-04-15T10:10:41;6.47;;;3.38;;
13079;SDS011;6606;49.154;9.280;2023-04-15T10:13:23;7.50;;;3.60;;
13079;SDS011;6606;49.154;9.280;2023-04-15T10:16:09;6.95;;;3.70;;
13079;SDS011;6606;49.154;9.280;2023-04-15T10:19:00;7.43;;;3.60;;
13079;SDS011;6606;49.154;9.280;2023-04-15T10:23:22;4.22;;;2.50;;
13079;SDS011;6606;49.154;9.280;2023-04-15T10:26:21;4.00;;;2.90;;
13079;SDS011;6606;49.154;9.280;2023-04-15T10:29:11;3.97;;;2.40;;
13079;SDS011;6606;49.154;9.280;2023-04-15T10:31:53;4.40;;;2.78;;
13079;SDS011;6606;49.154;9.280;2023-04-15T10:34:35;5.55;;;2.80;;
13079;SDS011;6606;49.154;9.280;2023-04-15T10:37:21;5.78;;;2.90;;
13079;SDS011;6606;49.154;9.280;2023-04-15T10:40:23;7.03;;;2.83;;
13079;SDS011;6606;49.154;9.280;2023-04-15T10:43:15;5.20;;;2.90;;
13079;SDS011;6606;49.154;9.280;2023-04-15T10:46:05;4.78;;;3.25;;
13079;SDS011;6606;49.154;9.280;2023-04-15T10:48:47;4.57;;;2.70;;
13079;SDS011;6606;49.154;9.280;2023-04-15T10:51:30;4.68;;;2.60;;
13079;SDS011;6606;49.154;9.280;2023-04-15T10:54:13;6.35;;;2.92;;
13079;SDS011;6606;49.154;9.280;2023-04-15T10:57:48;5.57;;;3.08;;
13079;SDS011;6606;49.154;9.280;2023-04-15T11:01:50;3.90;;;2.78;;
13079;SDS011;6606;49.154;9.280;2023-04-15T11:05:06;5.20;;;3.15;;
13079;SDS011;6606;49.154;9.280;2023-04-15T11:07:49;5.75;;;3.00;;
13079;SDS011;6606;49.154;9.280;2023-04-15T11:13:35;5.43;;;3.03;;
13079;SDS011;6606;49.154;9.280;2023-04-15T11:16:27;5.10;;;2.90;;
13079;SDS011;6606;49.154;9.280;2023-04-15T11:19:12;4.18;;;3.20;;
13079;SDS011;6606;49.154;9.280;2023-04-15T11:21:53;3.58;;;2.50;;
13079;SDS011;6606;49.154;9.280;2023-04-15T11:24:38;3.00;;;2.20;;
13079;SDS011;6606;49.154;9.280;2023-04-15T11:27:29;4.25;;;2.60;;
13079;SDS011;6606;49.154;9.280;2023-04-15T11:30:18;3.13;;;2.00;;
13079;SDS011;6606;49.154;9.280;2023-04-15T11:33:04;3.13;;;1.55;;
13079;SDS011;6606;49.154;9.280;2023-04-15T11:35:49;2.97;;;1.80;;
13079;SDS011;6606;49.154;9.280;2023-04-15T11:38:33;2.67;;;1.50;;
13079;SDS011;6606;49.154;9.280;2023-04-15T11:41:19;3.97;;;1.60;;
13079;SDS011;6606;49.154;9.280;2023-04-15T11:44:01;2.80;;;1.58;;
13079;SDS011;6606;49.154;9.280;2023-04-15T11:46:43;2.78;;;1.20;;
13079;SDS011;6606;49.154;9.280;2023-04-15T11:49:25;2.67;;;1.35;;
13079;SDS011;6606;49.154;9.280;2023-04-15T11:52:10;1.75;;;1.40;;
13079;SDS011;6606;49.154;9.280;2023-04-15T11:55:00;3.97;;;1.50;;
13079;SDS011;6606;49.154;9.280;2023-04-15T11:57:43;2.73;;;1.67;;
13079;SDS011;6606;49.154;9.280;2023-04-15T12:00:25;2.27;;;1.50;;
13079;SDS011;6606;49.154;9.280;2023-04-15T12:03:10;2.20;;;1.43;;
13079;SDS011;6606;49.154;9.280;2023-04-15T12:09:06;3.47;;;1.50;;
13079;SDS011;6606;49.154;9.280;2023-04-15T12:11:50;2.00;;;1.47;;
13079;SDS011;6606;49.154;9.280;2023-04-15T12:14:33;1.90;;;1.20;;
13079;SDS011;6606;49.154;9.280;2023-04-15T12:17:15;2.67;;;1.40;;
13079;SDS011;6606;49.154;9.280;2023-04-15T12:19:57;4.83;;;1.20;;
13079;SDS011;6606;49.154;9.280;2023-04-15T12:22:39;2.70;;;1.47;;
13079;SDS011;6606;49.154;9.280;2023-04-15T12:25:33;1.30;;;1.00;;
13079;SDS011;6606;49.154;9.280;2023-04-15T12:28:16;2.17;;;1.20;;
13079;SDS011;6606;49.154;9.280;2023-04-15T12:30:58;3.10;;;1.10;;
13079;SDS011;6606;49.154;9.280;2023-04-15T12:33:40;2.50;;;0.93;;
13079;SDS011;6606;49.154;9.280;2023-04-15T12:36:22;2.10;;;0.83;;
13079;SDS011;6606;49.154;9.280;2023-04-15T12:39:04;2.00;;;0.93;;
13079;SDS011;6606;49.154;9.280;2023-04-15T12:41:47;1.80;;;0.90;;
13079;SDS011;6606;49.154;9.280;2023-04-15T12:44:30;1.83;;;1.00;;
13079;SDS011;6606;49.154;9.280;2023-04-15T12:47:13;2.20;;;1.00;;
13079;SDS011;6606;49.154;9.280;2023-04-15T12:49:55;1.10;;;0.90;;
13079;SDS011;6606;49.154;9.280;2023-04-15T12:52:36;2.40;;;1.10;;
13079;SDS011;6606;49.154;9.280;2023-04-15T12:55:18;3.13;;;1.20;;
13079;SDS011;6606;49.154;9.280;2023-04-15T12:58:01;2.13;;;1.10;;
13079;SDS011;6606;49.154;9.280;2023-04-15T13:04:10;1.87;;;1.20;;
13079;SDS011;6606;49.154;9.280;2023-04-15T13:06:55;2.20;;;1.40;;
13079;SDS011;6606;49.154;9.280;2023-04-15T13:09:37;3.03;;;1.30;;
13079;SDS011;6606;49.154;9.280;2023-04-15T13:12:19;2.10;;;1.20;;
13079;SDS011;6606;49.154;9.280;2023-04-15T13:15:02;1.90;;;1.20;;
13079;SDS011;6606;49.154;9.280;2023-04-15T13:17:44;2.27;;;1.30;;
13079;SDS011;6606;49.154;9.280;2023-04-15T13:20:26;3.27;;;1.10;;
13079;SDS011;6606;49.154;9.280;2023-04-15T13:23:08;3.20;;;1.10;;
13079;SDS011;6606;49.154;9.280;2023-04-15T13:25:51;4.03;;;1.20;;
13079;SDS011;6606;49.154;9.280;2023-04-15T13:28:38;2.23;;;1.10;;
13079;SDS011;6606;49.154;9.280;2023-04-15T13:31:24;1.73;;;1.10;;
13079;SDS011;6606;49.154;9.280;2023-04-15T13:34:09;1.10;;;1.00;;
13079;SDS011;6606;49.154;9.280;2023-04-15T13:36:50;2.83;;;1.20;;
13079;SDS011;6606;49.154;9.280;2023-04-15T13:39:32;1.73;;;1.00;;
13079;SDS011;6606;49.154;9.280;2023-04-15T13:42:17;2.67;;;1.20;;
13079;SDS011;6606;49.154;9.280;2023-04-15T13:44:59;1.83;;;1.00;;
13079;SDS011;6606;49.154;9.280;2023-04-15T13:47:42;3.03;;;1.10;;
13079;SDS011;6606;49.154;9.280;2023-04-15T13:50:26;2.37;;;1.00;;
13079;SDS011;6606;49.154;9.280;2023-04-15T13:53:08;1.33;;;1.00;;
13079;SDS011;6606;49.154;9.280;2023-04-15T13:55:49;1.77;;;1.20;;
13079;SDS011;6606;49.154;9.280;2023-04-15T13:58:31;3.00;;;1.13;;
13079;SDS011;6606;49.154;9.280;2023-04-15T14:01:13;2.43;;;1.10;;
13079;SDS011;6606;49.154;9.280;2023-04-15T14:03:56;2.73;;;1.30;;
13079;SDS011;6606;49.154;9.280;2023-04-15T14:06:38;1.63;;;1.03;;
13079;SDS011;6606;49.154;9.280;2023-04-15T14:09:20;1.60;;;1.10;;
13079;SDS011;6606;49.154;9.280;2023-04-15T14:12:03;2.20;;;1.10;;
13079;SDS011;6606;49.154;9.280;2023-04-15T14:14:45;1.20;;;1.10;;
13079;SDS011;6606;49.154;9.280;2023-04-15T14:17:27;2.83;;;1.20;;
13079;SDS011;6606;49.154;9.280;2023-04-15T14:20:10;1.40;;;1.10;;
13079;SDS011;6606;49.154;9.280;2023-04-15T14:22:52;1.43;;;1.10;;
13079;SDS011;6606;49.154;9.280;2023-04-15T14:25:34;1.53;;;1.20;;
13079;SDS011;6606;49.154;9.280;2023-04-15T14:28:40;1.77;;;1.17;;
13079;SDS011;6606;49.154;9.280;2023-04-15T14:31:24;1.43;;;1.17;;
13079;SDS011;6606;49.154;9.280;2023-04-15T14:34:11;1.40;;;1.13;;
13079;SDS011;6606;49.154;9.280;2023-04-15T14:36:54;2.03;;;1.13;;
13079;SDS011;6606;49.154;9.280;2023-04-15T14:39:42;1.43;;;1.27;;
13079;SDS011;6606;49.154;9.280;2023-04-15T14:42:24;1.70;;;1.33;;
13079;SDS011;6606;49.154;9.280;2023-04-15T14:45:10;2.13;;;1.40;;
13079;SDS011;6606;49.154;9.280;2023-04-15T14:47:52;2.53;;;1.30;;
13079;SDS011;6606;49.154;9.280;2023-04-15T14:50:37;2.10;;;1.47;;
13079;SDS011;6606;49.154;9.280;2023-04-15T14:53:22;1.50;;;1.30;;
13079;SDS011;6606;49.154;9.280;2023-04-15T14:56:07;1.87;;;1.23;;
13079;SDS011;6606;49.154;9.280;2023-04-15T14:58:54;1.57;;;1.47;;
13079;SDS011;6606;49.154;9.280;2023-04-15T15:01:35;2.70;;;1.40;;
13079;SDS011;6606;49.154;9.280;2023-04-15T15:04:17;1.60;;;1.30;;
13079;SDS011;6606;49.154;9.280;2023-04-15T15:06:59;2.37;;;1.30;;
13079;SDS011;6606;49.154;9.280;2023-04-15T15:09:42;2.03;;;1.40;;
13079;SDS011;6606;49.154;9.280;2023-04-15T15:12:24;1.73;;;1.20;;
13079;SDS011;6606;49.154;9.280;2023-04-15T15:15:09;2.80;;;1.70;;
13079;SDS011;6606;49.154;9.280;2023-04-15T15:17:52;1.77;;;1.57;;
13079;SDS011;6606;49.154;9.280;2023-04-15T15:20:34;2.30;;;1.70;;
13079;SDS011;6606;49.154;9.280;2023-04-15T15:23:16;1.80;;;1.50;;
13079;SDS011;6606;49.154;9.280;2023-04-15T15:25:59;3.63;;;1.90;;
13079;SDS011;6606;49.154;9.280;2023-04-15T15:28:41;4.40;;;1.97;;
13079;SDS011;6606;49.154;9.280;2023-04-15T15:31:24;2.07;;;1.70;;
13079;SDS011;6606;49.154;9.280;2023-04-15T15:34:06;3.37;;;1.90;;
13079;SDS011;6606;49.154;9.280;2023-04-15T15:36:48;6.97;;;3.40;;
13079;SDS011;6606;49.154;9.280;2023-04-15T15:39:30;2.27;;;1.63;;
13079;SDS011;6606;49.154;9.280;2023-04-15T15:42:13;2.43;;;1.87;;
13079;SDS011;6606;49.154;9.280;2023-04-15T15:44:55;2.27;;;1.53;;
13079;SDS011;6606;49.154;9.280;2023-04-15T15:47:36;1.53;;;1.43;;
13079;SDS011;6606;49.154;9.280;2023-04-15T15:50:18;2.37;;;1.43;;
13079;SDS011;6606;49.154;9.280;2023-04-15T15:53:01;2.97;;;1.67;;
13079;SDS011;6606;49.154;9.280;2023-04-15T15:55:43;2.20;;;1.80;;
13079;SDS011;6606;49.154;9.280;2023-04-15T15:58:26;3.10;;;1.80;;
13079;SDS011;6606;49.154;9.280;2023-04-15T16:01:08;2.07;;;1.60;;
13079;SDS011;6606;49.154;9.280;2023-04-15T16:03:50;1.73;;;1.60;;
13079;SDS011;6606;49.154;9.280;2023-04-15T16:06:31;2.33;;;1.80;;
13079;SDS011;6606;49.154;9.280;2023-04-15T16:22:25;2.30;;;1.20;;
13079;SDS011;6606;49.154;9.280;2023-04-15T16:25:17;1.20;;;1.10;;
13079;SDS011;6606;49.154;9.280;2023-04-15T16:38:00;1.00;;;0.90;;
13079;SDS011;6606;49.154;9.280;2023-04-15T16:45:08;1.20;;;0.93;;
13079;SDS011;6606;49.154;9.280;2023-04-15T16:47:50;1.10;;;1.00;;
13079;SDS011;6606;49.154;9.280;2023-04-15T16:50:35;1.40;;;1.10;;
13079;SDS011;6606;49.154;9.280;2023-04-15T16:53:18;1.30;;;1.00;;
13079;SDS011;6606;49.154;9.280;2023-04-15T16:56:00;1.83;;;1.13;;
13079;SDS011;6606;49.154;9.280;2023-04-15T16:58:42;1.20;;;1.10;;
13079;SDS011;6606;49.154;9.280;2023-04-15T17:01:24;1.10;;;1.00;;
13079;SDS011;6606;49.154;9.280;2023-04-15T17:04:05;1.53;;;1.17;;
13079;SDS011;6606;49.154;9.280;2023-04-15T17:06:47;1.87;;;1.37;;
13079;SDS011;6606;49.154;9.280;2023-04-15T17:09:30;1.40;;;1.27;;
13079;SDS011;6606;49.154;9.280;2023-04-15T17:12:12;1.20;;;1.10;;
13079;SDS011;6606;49.154;9.280;2023-04-15T17:14:56;2.03;;;1.20;;
13079;SDS011;6606;49.154;9.280;2023-04-15T17:17:38;1.40;;;1.00;;
13079;SDS011;6606;49.154;9.280;2023-04-15T17:20:20;1.23;;;1.03;;
13079;SDS011;6606;49.154;9.280;2023-04-15T17:23:02;1.10;;;1.00;;
13079;SDS011;6606;49.154;9.280;2023-04-15T17:25:47;4.10;;;1.10;;
13079;SDS011;6606;49.154;9.280;2023-04-15T17:28:30;1.40;;;1.10;;
13079;SDS011;6606;49.154;9.280;2023-04-15T17:31:12;1.40;;;1.30;;